Tiempo atmosférico en la estación meteorológica de Santiago De Compostela, A Coruña (240 m.)



Fecha
DESCASC
Temp. máxima en grados centígrados (hora)
DESCASC
Temp. mínima en grados centígrados (hora)
DESCASC
Temp. media en grados centígrados
DESCASC
Racha de viento máxima en m/sg (hora)
DESCASC
Velocidad máxima media en intervalos de 10 minutos(hora)
DESCASC
Precipitaciones diarias en mm
DESCASC
Precipitaciones de 00:00 a 06:00 en mm
DESCASC
Precipitaciones de 06:00 a 12:00 en mm
DESCASC
Precipitaciones de 12:00 a 18:00 en mm
DESCASC
Precipitaciones de 18:00 a 24:00 en mm
DESCASC
16-06-2019 24.4 (16:50) 8.3 (07:40) 16.3 7.22 (19:10) 3.06 (19:10) 0 0 0 0 0
15-06-2019 17.8 (19:10) 10 (06:00) 13.9 5.28 (19:20) 2.22 (16:10) 0.1 0 0.1 0 0
14-06-2019 19 (13:50) 5.9 (07:20) 12.5 5.83 (18:10) 2.22 (18:20) 0.8 0 0 0 0.8
13-06-2019 17.5 (14:00) 6 (00:00) 11.8 4.44 (20:40) 1.67 (20:10) 0 0 0 0 0
12-06-2019 16.6 (15:40) 7.3 (00:00) 12 4.17 (16:20) 1.67 (16:30) 0.5 0 0 0.5 0
11-06-2019 17.6 (15:20) 9.2 (00:00) 13.4 8.33 (14:40) 3.33 (13:50) 0.9 0.9 0 0 0
10-06-2019 18.6 (17:10) 7.5 (00:00) 13.1 5 (20:10) 1.67 (15:40) 0 0 0 0 0
09-06-2019 18.6 (15:30) 9.1 (00:00) 13.9 5.28 (23:00) 2.22 (16:10) 0 0 0 0 0
08-06-2019 16.1 (18:10) 5.8 (00:00) 11 5.56 (16:40) 2.22 (22:00) 0 0 0 0 0
07-06-2019 16.1 (15:10) 7.6 (00:00) 11.9 8.33 (12:50) 2.22 (19:30) 7.4 5.5 0.6 1.3 0
06-06-2019 13.8 (17:00) 10.1 (00:00) 12 14.17 (14:30) 4.17 (16:00) 30.3 2.8 4.7 22.5 0.3
05-06-2019 16.4 (14:40) 9.1 (00:00) 12.8 8.33 (17:20) 2.78 (17:10) 0.5 0 0 0 0.5
04-06-2019 17.3 (13:20) 11.9 (00:00) 14.6 8.06 (14:30) 2.78 (14:50) 6.3 0.1 3.6 2.6 0
03-06-2019 20.3 (15:20) 14.2 (00:00) 17.2 6.94 (17:20) 3.06 (16:40) 5.6 0.6 4.2 0.8 0
02-06-2019 24.1 (16:30) 12.9 (00:00) 18.5 5.28 (16:00) 2.22 (19:00) 0 0 0 0 0
01-06-2019 31 (15:50) 14.2 (00:00) 22.6 6.11 (16:10) 1.94 (15:40) 0 0 0 0 0
31-05-2019 33.9 (15:50) 16 (00:00) 25 6.67 (15:50) 3.06 (16:10) 0 0 0 0 0
30-05-2019 32.3 (16:20) 14.5 (00:00) 23.4 7.78 (19:40) 2.78 (19:50) 0 0 0 0 0
29-05-2019 26.6 (16:30) 9.8 (00:00) 18.2 7.5 (14:40) 2.5 (15:50) 0 0 0 0 0
28-05-2019 -- (--) -- (--) -- 8.89 (14:40) 3.33 (19:20) 0 0 0 0 0
27-05-2019 20.1 (14:10) 11.6 (00:00) 15.9 9.17 (16:40) 3.61 (16:10) 0.1 0 0.1 0 0
26-05-2019 23.3 (16:30) 10.7 (00:00) 17 8.33 (16:50) 3.33 (18:00) 0 0 0 0 0
25-05-2019 22 (16:10) 11 (00:00) 16.5 9.72 (17:20) 3.33 (18:50) 0 0 0 0 0
24-05-2019 19.4 (16:00) 9.5 (00:00) 14.4 8.89 (16:20) 3.33 (23:10) 0 0 0 0 0
23-05-2019 21.9 (16:10) 11.9 (00:00) 16.9 6.11 (19:30) 1.67 (21:10) 0 0 0 0 0
22-05-2019 24.7 (16:00) 9.7 (00:00) 17.2 6.39 (17:30) 2.78 (16:50) 0 0 0 0 0
21-05-2019 24.3 (16:10) 8.7 (07:10) 16.5 7.22 (19:10) 3.06 (19:50) 0 0 0 0 0

Gráficas

Temp. máximas Temp. mínimas Temp. medias Precipitaciones Rachas de viento máximas Velocidades máximas media en intervalos de 10 minutos

Datos horarios

Fecha y hora oficial Temperatura (ºC) Velocidad del viento (km/h) Dirección del viento Racha (km/h) Dirección de racha Precipitación (mm) Presión (hPa) Tendencia (hPa) Humedad (%)
2019-06-19 23:00:00 15.7 6 Nordeste 15 Norte 0 -- -- 87
2019-06-19 22:00:00 16.5 2 Nordeste 11 Nordeste 0 -- -- 83
2019-06-19 21:00:00 17.5 0 Calma 4 Oeste 0 -- -- 77
2019-06-19 20:00:00 17.8 0 Calma 9 Sudoeste 0 -- -- 75
2019-06-19 19:00:00 18 0 Calma 10 Oeste 0 -- -- 77
2019-06-19 18:00:00 17.7 0 Calma 7 Sur 0.2 -- -- 85
2019-06-19 17:00:00 17.3 0 Calma 14 Oeste 0.1 -- -- 84
2019-06-19 16:00:00 17.4 5 Oeste 16 Sudoeste 0 -- -- 84
2019-06-19 15:00:00 17.2 7 Sudoeste -- -- -- -- -- 85
2019-06-19 14:00:00 17 8 Sudoeste 20 Oeste 0 -- -- 86
2019-06-19 13:00:00 16.4 5 Sudoeste 21 Oeste 0.3 -- -- 91
2019-06-19 12:00:00 15.7 2 Sudoeste 11 Oeste 0.2 -- -- 94
2019-06-19 11:00:00 15.5 0 Calma 10 Oeste 0.3 -- -- 96
2019-06-19 10:00:00 14.8 5 Sudoeste 16 Oeste 0.5 -- -- 96
2019-06-19 09:00:00 14.7 4 Sudoeste 15 Oeste 0.3 -- -- 95
2019-06-19 08:00:00 14.7 4 Sudoeste 17 Oeste 0 -- -- 95
2019-06-19 07:00:00 14.5 4 Sudoeste 17 Oeste 0 -- -- 96
2019-06-19 06:00:00 14.7 4 Sudoeste 22 Sudoeste 0 -- -- 96
2019-06-19 05:00:00 14.7 6 Sudoeste 17 Sudoeste 0.3 -- -- 96
2019-06-19 04:00:00 14.9 8 Sudoeste 26 Sudoeste 0.1 -- -- 96
2019-06-19 03:00:00 15.1 6 Sudoeste 23 Sudoeste 0.3 -- -- 96
2019-06-19 02:00:00 15.1 8 Sudoeste 29 Oeste 0 -- -- 96
2019-06-19 01:00:00 15.1 9 Sudoeste 30 Sudoeste 1.1 -- -- 96
2019-06-19 00:00:00 15.3 6 Sudoeste 25 Oeste 2.9 -- -- 96
2019-06-18 23:00:00 15.6 10 Sudoeste 38 Oeste 0.2 -- -- 95
2019-06-18 22:00:00 15.7 13 Sudoeste 41 Sudoeste 0.4 -- -- 93
2019-06-18 21:00:00 16.6 6 Sudoeste 48 Oeste 0 -- -- 83
2019-06-18 20:00:00 17.1 9 Sudoeste 35 Sudoeste 0 -- -- 79
2019-06-18 19:00:00 17.2 8 Sudoeste 28 Oeste 0.1 -- -- 79
2019-06-18 18:00:00 17 8 Sudoeste 38 Sudoeste 0 -- -- 81
2019-06-18 17:00:00 16.7 15 Sudoeste 39 Sudoeste 0.9 -- -- 86
2019-06-18 16:00:00 16 7 Sudoeste 22 Oeste 3.3 -- -- 93
2019-06-18 15:00:00 16.3 4 Sur 22 Sudoeste 2.3 -- -- 89
2019-06-18 14:00:00 17.8 6 Sur 27 Sudoeste 0.3 -- -- 74
2019-06-18 13:00:00 18 5 Sudoeste 21 Sudoeste 0 -- -- 75
2019-06-18 12:00:00 16.5 3 Sudeste 12 Sudeste 0 -- -- 85
2019-06-18 11:00:00 14.4 3 Sudeste 13 Sudeste 0 -- -- 91
2019-06-18 10:00:00 12.9 0 Calma 4 Sudoeste 0.9 -- -- 93
2019-06-18 09:00:00 12.5 0 Calma 8 Sudeste 0.2 -- -- 95
2019-06-18 08:00:00 12.6 0 Calma 5 Sudoeste 1.6 -- -- 95
2019-06-18 07:00:00 12.7 0 Calma 0 Calma 1.4 -- -- 93
2019-06-18 06:00:00 12.9 0 Calma 5 Sudoeste 0.4 -- -- 91
2019-06-18 05:00:00 13.4 0 Calma 5 Sudoeste 0.8 -- -- 91
2019-06-18 04:00:00 14.2 2 Sudoeste 6 Sudoeste 0.2 -- -- 90
2019-06-18 03:00:00 14.6 0 Calma 9 Este 0.1 -- -- 85
2019-06-18 02:00:00 15 2 Sur 8 Sudeste 0 -- -- 76
2019-06-18 01:00:00 14.8 0 Calma 7 Este 0 -- -- 75
2019-06-18 00:00:00 14.9 0 Calma 6 Nordeste 0 -- -- 74
2019-06-17 23:00:00 15.5 3 Nordeste 13 Sudoeste 0 -- -- 69
2019-06-17 22:00:00 15.9 8 Sudoeste 20 Oeste 0 -- -- 66
2019-06-17 21:00:00 18 0 Calma 10 Sudoeste 0 -- -- 67
2019-06-17 20:00:00 18.8 0 Calma 6 Oeste 0 -- -- 64
2019-06-17 19:00:00 19.2 3 Oeste 18 Sudoeste 0 -- -- 63
2019-06-17 18:00:00 18.7 6 Sudoeste 15 Sudoeste 0 -- -- 63
2019-06-17 17:00:00 18.7 3 Oeste 18 Sudoeste 0 -- -- 65
2019-06-17 16:00:00 19.2 6 Oeste 16 Sudoeste 0 -- -- 62
2019-06-17 15:00:00 18.8 0 Calma 13 Oeste 0 -- -- 62
2019-06-17 14:00:00 17.7 5 Sudoeste 15 Sudoeste 0 -- -- 67
2019-06-17 13:00:00 17.3 3 Sudoeste 11 Sudoeste 0 -- -- 70
2019-06-17 12:00:00 16.2 0 Calma 8 Sudoeste 0 -- -- 78
2019-06-17 11:00:00 13.9 0 Calma 10 Sudeste 0 -- -- 85
2019-06-17 10:00:00 13.3 5 Sudeste 13 Sudeste 0 -- -- 88
2019-06-17 09:00:00 13.3 2 Nordeste 11 Norte 0 -- -- 89
2019-06-17 08:00:00 12.7 0 Calma 11 Norte 0 -- -- 93
2019-06-17 07:00:00 12.2 0 Calma 11 Nordeste 0 -- -- 96
2019-06-17 06:00:00 12 2 Nordeste 11 Nordeste 0 -- -- 96
2019-06-17 05:00:00 11.8 3 Nordeste 18 Nordeste 0 -- -- 96
2019-06-17 04:00:00 11.8 2 Nordeste 13 Norte 0 -- -- 96
2019-06-17 03:00:00 11.7 4 Nordeste 12 Norte 0 -- -- 92
2019-06-17 02:00:00 12 0 Calma 12 Nordeste 0 -- -- 88
2019-06-17 01:00:00 12.5 2 Nordeste 14 Norte 0 -- -- 85
2019-06-17 00:00:00 13.1 4 Nordeste 13 Norte 0 -- -- 79
2019-06-16 23:00:00 14.1 5 Nordeste 22 Nordeste 0 -- -- 71
2019-06-16 22:00:00 15.5 5 Nordeste 22 Norte 0 -- -- 65
2019-06-16 21:00:00 17.1 7 Norte 23 Nordeste 0 -- -- 59
2019-06-16 20:00:00 18.2 10 Nordeste 26 Nordeste 0 -- -- 57
2019-06-16 19:00:00 19.3 9 Norte 25 Norte 0 -- -- 55
2019-06-16 18:00:00 20.6 6 Norte 24 Nordeste 0 -- -- 52
2019-06-16 17:00:00 24.3 3 Oeste 14 Nordeste 0 -- -- 38
2019-06-16 16:00:00 23.9 4 Sudoeste 17 Sudoeste 0 -- -- 38
2019-06-16 15:00:00 22.9 2 Oeste 15 Norte 0 -- -- 41
2019-06-16 14:00:00 22 2 Norte 12 Nordeste 0 -- -- 48
2019-06-16 13:00:00 19.1 3 Este 20 Nordeste 0 -- -- 55
2019-06-16 12:00:00 16.8 3 Nordeste 15 Norte 0 -- -- 65
2019-06-16 11:00:00 14.8 5 Nordeste 14 Nordeste 0 -- -- 70
2019-06-16 10:00:00 12.6 3 Nordeste 10 Nordeste 0 -- -- 89
2019-06-16 09:00:00 9.9 2 Nordeste 8 Nordeste 0 -- -- 90
2019-06-16 08:00:00 8.8 2 Nordeste 11 Nordeste 0 -- -- 94
2019-06-16 07:00:00 8.8 4 Nordeste 12 Nordeste 0 -- -- 93
2019-06-16 06:00:00 9.4 2 Nordeste 8 Norte 0 -- -- 93
2019-06-16 05:00:00 9.9 3 Nordeste 7 Este 0 -- -- 93
2019-06-16 04:00:00 10.2 0 Calma 5 Este 0 -- -- 93
2019-06-16 03:00:00 10.6 0 Calma 8 Nordeste 0 -- -- 92
2019-06-16 02:00:00 11.1 0 Calma 8 Nordeste 0 -- -- 90
2019-06-16 01:00:00 11.4 0 Calma 5 Norte 0 -- -- 86
2019-06-16 00:00:00 12.3 0 Calma 7 Norte 0 -- -- 78
2019-06-15 23:00:00 13.8 0 Calma 6 Sudoeste 0 -- -- 67
2019-06-15 22:00:00 15.6 2 Oeste 10 Sudoeste 0 -- -- 58
2019-06-15 21:00:00 16.9 4 Oeste 15 Oeste 0 -- -- 53
2019-06-15 20:00:00 17.2 3 Sudoeste 19 Sudoeste 0 -- -- 52
2019-06-15 19:00:00 17.7 4 Sudoeste 14 Sudoeste 0 -- -- 51
2019-06-15 18:00:00 17.6 0 Calma 16 Sudoeste 0 -- -- 49
2019-06-15 17:00:00 17.3 0 Calma 19 Oeste 0 -- -- 54
2019-06-15 16:00:00 16.6 7 Oeste 17 Sudoeste 0 -- -- 60
2019-06-15 15:00:00 15.1 3 Oeste 14 Oeste 0 -- -- 68
2019-06-15 14:00:00 15.6 4 Sudoeste 14 Sudoeste 0 -- -- 67
2019-06-15 13:00:00 14.7 5 Sudoeste 13 Sudoeste 0 -- -- 69
2019-06-15 12:00:00 14.9 3 Sudoeste 16 Oeste 0 -- -- 68
2019-06-15 11:00:00 14.4 5 Oeste 19 Oeste 0 -- -- 69
2019-06-15 10:00:00 12.9 3 Sudoeste 8 Sudoeste 0 -- -- 92
2019-06-15 09:00:00 11.4 0 Calma 6 Sur 0 -- -- 97
2019-06-15 08:00:00 11.2 0 Calma 3 Nordeste 0.1 -- -- 97
2019-06-15 07:00:00 10.7 0 Calma 5 Oeste 0 -- -- 97
2019-06-15 06:00:00 10.1 0 Calma -- -- 0 -- -- 97
2019-06-15 05:00:00 10.8 0 Calma -- -- 0 -- -- 97
2019-06-15 04:00:00 11.7 0 Calma 2 Sudoeste 0 -- -- 96
2019-06-15 03:00:00 11.6 0 Calma -- -- 0 -- -- 96
2019-06-15 02:00:00 11.8 0 Calma -- -- 0 -- -- 94
2019-06-15 01:00:00 12.5 0 Calma 10 Oeste 0 -- -- 93
2019-06-15 00:00:00 13.1 3 Sudoeste 14 Oeste 0.8 -- -- 90
2019-06-14 23:00:00 14 4 Sudoeste 12 Sudoeste 0 -- -- 79
2019-06-14 22:00:00 14.3 0 Calma 13 Oeste 0 -- -- 70
2019-06-14 21:00:00 15 3 Oeste 15 Sudoeste 0 -- -- 65
2019-06-14 20:00:00 15.9 0 Calma 15 Sudoeste 0 -- -- 59
2019-06-14 19:00:00 16.3 5 Oeste 21 Oeste 0 -- -- 56
2019-06-14 18:00:00 16.8 4 Oeste 17 Sudoeste 0 -- -- 54
2019-06-14 17:00:00 17.4 0 Calma 15 Sudoeste 0 -- -- 53
2019-06-14 16:00:00 16.9 2 Oeste 14 Sudoeste 0 -- -- 56
2019-06-14 15:00:00 18 3 Oeste 16 Sudoeste 0 -- -- 49
2019-06-14 14:00:00 18.3 5 Oeste 16 Oeste 0 -- -- 44
2019-06-14 13:00:00 16.8 3 Sudoeste 12 Sudoeste 0 -- -- 44
2019-06-14 12:00:00 14.5 2 Sudoeste 12 Sur 0 -- -- 57
2019-06-14 11:00:00 12.2 0 Calma 8 Sur 0 -- -- 79
2019-06-14 10:00:00 10.6 0 Calma 7 Norte 0 -- -- 89
2019-06-14 09:00:00 7.7 3 Nordeste 10 Nordeste 0 -- -- 93
2019-06-14 08:00:00 6.3 3 Nordeste 7 Nordeste 0 -- -- 96
2019-06-14 07:00:00 6.1 0 Calma 8 Nordeste 0 -- -- 96
2019-06-14 06:00:00 6.8 0 Calma 7 Norte 0 -- -- 95
2019-06-14 05:00:00 7.6 0 Calma 8 Nordeste 0 -- -- 94
2019-06-14 04:00:00 7.9 3 Nordeste 8 Norte 0 -- -- 93
2019-06-14 03:00:00 8.6 0 Calma 5 Nordeste 0 -- -- 90
2019-06-14 02:00:00 9.3 0 Calma 7 Nordeste 0 -- -- 89
2019-06-14 01:00:00 10.1 0 Calma 9 Norte 0 -- -- 86
2019-06-14 00:00:00 10.8 2 Nordeste 10 Norte 0 -- -- 81
2019-06-13 23:00:00 12 0 Calma 6 Nordeste 0 -- -- 77
2019-06-13 22:00:00 13.5 0 Calma 9 Nordeste 0 -- -- 71
2019-06-13 21:00:00 14.2 5 Norte 16 Norte 0 -- -- 68
2019-06-13 20:00:00 14.7 5 Nordeste 12 Nordeste 0 -- -- 69
2019-06-13 19:00:00 14.8 2 Norte 9 Norte 0 -- -- 65
2019-06-13 18:00:00 15.2 0 Calma 11 Oeste 0 -- -- 62
2019-06-13 17:00:00 16 0 Calma 14 Oeste 0 -- -- 56
2019-06-13 16:00:00 17.2 2 Oeste 12 Noroeste 0 -- -- 50
2019-06-13 15:00:00 16.6 0 Calma 10 Norte 0 -- -- 51
2019-06-13 14:00:00 17.1 0 Calma 13 Oeste 0 -- -- 48
2019-06-13 13:00:00 15.2 0 Calma 9 Nordeste 0 -- -- 55
2019-06-13 12:00:00 13.3 0 Calma 7 Norte 0 -- -- 71
2019-06-13 11:00:00 13 0 Calma 8 Norte 0 -- -- 70
2019-06-13 10:00:00 11 0 Calma 6 Este 0 -- -- 88
2019-06-13 09:00:00 8.5 0 Calma 3 Nordeste 0 -- -- 96
2019-06-13 08:00:00 6.5 0 Calma 5 Nordeste 0 -- -- 97
2019-06-13 07:00:00 6.3 0 Calma 3 Nordeste 0 -- -- 97
2019-06-13 06:00:00 6.6 0 Calma 4 Nordeste 0 -- -- 96
2019-06-13 05:00:00 7 0 Calma -- -- 0 -- -- 95
2019-06-13 04:00:00 7.4 0 Calma 7 Nordeste 0 -- -- 94
2019-06-13 03:00:00 7.7 0 Calma 4 Nordeste 0 -- -- 93
2019-06-13 02:00:00 8.8 0 Calma 6 Norte 0 -- -- 90
2019-06-13 01:00:00 9.7 0 Calma 8 Nordeste 0 -- -- 88
2019-06-13 00:00:00 10.6 0 Calma 5 Nordeste 0 -- -- 86
2019-06-12 23:00:00 11.6 0 Calma 8 Norte 0 -- -- 87
2019-06-12 22:00:00 12.6 2 Norte 11 Norte 0 -- -- 82
2019-06-12 21:00:00 13 4 Nordeste 8 Norte 0 -- -- 82
2019-06-12 20:00:00 13.3 3 Norte 14 Nordeste 0 -- -- 80
2019-06-12 19:00:00 14.1 5 Nordeste 14 Nordeste 0 -- -- 75
2019-06-12 18:00:00 14.1 3 Norte 9 Norte 0 -- -- 72
2019-06-12 17:00:00 14.4 3 Nordeste 15 Nordeste 0.4 -- -- 75
2019-06-12 16:00:00 15.7 2 Oeste 13 Sudoeste 0.1 -- -- 56
2019-06-12 15:00:00 15.9 4 Sudoeste 12 Este 0 -- -- 53
2019-06-12 14:00:00 14.1 4 Norte 14 Norte 0 -- -- 61
2019-06-12 13:00:00 14 0 Calma 11 Norte 0 -- -- 64
2019-06-12 12:00:00 14 0 Calma 12 Sudoeste 0 -- -- 66
2019-06-12 11:00:00 12.5 4 Nordeste 11 Nordeste 0 -- -- 78
2019-06-12 10:00:00 11.6 2 Sur 6 Sudeste 0 -- -- 88
2019-06-12 09:00:00 9.6 0 Calma 5 Sudeste 0 -- -- 96
2019-06-12 08:00:00 7.6 0 Calma -- -- 0 -- -- 96
2019-06-12 07:00:00 7.5 0 Calma 3 Nordeste 0 -- -- 96
2019-06-12 06:00:00 8 0 Calma 5 Nordeste 0 -- -- 96
2019-06-12 05:00:00 7.6 0 Calma 6 Norte 0 -- -- 94
2019-06-12 04:00:00 8 0 Calma 3 Nordeste 0 -- -- 94
2019-06-12 03:00:00 8.5 0 Calma 3 Nordeste 0 -- -- 93
2019-06-12 02:00:00 9.1 0 Calma 7 Norte 0 -- -- 91
2019-06-12 01:00:00 9.8 2 Nordeste 6 Nordeste 0 -- -- 88
2019-06-12 00:00:00 10.6 3 Nordeste 8 Nordeste 0 -- -- 83
2019-06-11 23:00:00 11.6 0 Calma 10 Norte 0 -- -- 76
2019-06-11 22:00:00 12.5 4 Norte 19 Norte 0 -- -- 68
2019-06-11 21:00:00 13.8 8 Norte 23 Nordeste 0 -- -- 59
2019-06-11 20:00:00 14.2 9 Norte 26 Norte 0 -- -- 55
2019-06-11 19:00:00 15.3 6 Nordeste 30 Norte 0 -- -- 54
2019-06-11 18:00:00 16.2 8 Norte 28 Nordeste 0 -- -- 51
2019-06-11 17:00:00 17 11 Norte 29 Norte 0 -- -- 51
2019-06-11 16:00:00 17.4 10 Nordeste 29 Norte 0 -- -- 50
2019-06-11 15:00:00 17.1 11 Norte 30 Norte 0 -- -- 50
2019-06-11 14:00:00 16.5 9 Nordeste 30 Nordeste 0 -- -- 54
2019-06-11 13:00:00 14.8 9 Norte 30 Nordeste 0 -- -- 59
2019-06-11 12:00:00 13.9 7 Nordeste 27 Nordeste 0 -- -- 68
2019-06-11 11:00:00 13.2 6 Norte 22 Norte 0 -- -- 72
2019-06-11 10:00:00 11.3 6 Nordeste 18 Nordeste 0 -- -- 86
2019-06-11 09:00:00 11 3 Norte 13 Nordeste 0 -- -- 93
2019-06-11 08:00:00 9.4 0 Calma 9 Nordeste 0 -- -- 95
2019-06-11 07:00:00 9.5 3 Norte 22 Norte 0 -- -- 93
2019-06-11 06:00:00 10.1 8 Nordeste 20 Nordeste 0.4 -- -- 93
2019-06-11 05:00:00 11.2 2 Norte 13 Norte 0.5 -- -- 91
2019-06-11 04:00:00 11.8 5 Nordeste 12 Nordeste 0 -- -- 86
2019-06-11 03:00:00 12.1 0 Calma 7 Nordeste 0 -- -- 84
2019-06-11 02:00:00 12.3 2 Norte 8 Norte 0 -- -- 82
2019-06-11 01:00:00 12.4 3 Norte 15 Norte 0 -- -- 79
2019-06-11 00:00:00 12.8 2 Norte 13 Norte 0 -- -- 76
2019-06-10 23:00:00 13 3 Norte 14 Nordeste 0 -- -- 69
2019-06-10 22:00:00 13.6 4 Norte 16 Nordeste 0 -- -- 63
2019-06-10 21:00:00 15 2 Norte 18 Norte 0 -- -- 57
2019-06-10 20:00:00 16.1 4 Norte 15 Nordeste 0 -- -- 54
2019-06-10 19:00:00 16.9 0 Calma 15 Norte 0 -- -- 52
2019-06-10 18:00:00 18.3 0 Calma 8 Nordeste 0 -- -- 49
2019-06-10 17:00:00 18.5 3 Oeste 14 Sudoeste 0 -- -- 47
2019-06-10 16:00:00 17.4 4 Nordeste 14 Nordeste 0 -- -- 49
2019-06-10 15:00:00 17.4 0 Calma 10 Sudoeste 0 -- -- 52
2019-06-10 14:00:00 17.4 0 Calma 8 Sudoeste 0 -- -- 54
2019-06-10 13:00:00 15.5 0 Calma 11 Norte 0 -- -- 61
2019-06-10 12:00:00 13.9 0 Calma 14 Sudeste 0 -- -- 70
2019-06-10 11:00:00 12.2 3 Sudeste 12 Sudeste 0 -- -- 85
2019-06-10 10:00:00 10.2 2 Nordeste 7 Este 0 -- -- 93
2019-06-10 09:00:00 8.5 2 Nordeste 8 Nordeste 0 -- -- 95
2019-06-10 08:00:00 7.7 3 Nordeste 7 Nordeste 0 -- -- 95
2019-06-10 07:00:00 8.1 0 Calma 8 Este 0 -- -- 95
2019-06-10 06:00:00 8.3 0 Calma 4 Sudeste 0 -- -- 94
2019-06-10 05:00:00 8.2 0 Calma 6 Nordeste 0 -- -- 93
2019-06-10 04:00:00 8.7 0 Calma 5 Norte 0 -- -- 90
2019-06-10 03:00:00 9.3 0 Calma 8 Este 0 -- -- 87
2019-06-10 02:00:00 9.6 0 Calma 9 Norte 0 -- -- 86
2019-06-10 01:00:00 10.3 2 Nordeste 17 Norte 0 -- -- 83
2019-06-10 00:00:00 11 5 Nordeste 17 Nordeste 0 -- -- 75
2019-06-09 23:00:00 11.9 8 Nordeste 19 Nordeste 0 -- -- 64
2019-06-09 22:00:00 13.5 6 Nordeste 17 Nordeste 0 -- -- 61
2019-06-09 21:00:00 15.2 7 Norte 18 Nordeste 0 -- -- 58
2019-06-09 20:00:00 16.5 5 Norte 18 Noroeste 0 -- -- 57
2019-06-09 19:00:00 17 6 Nordeste 18 Norte 0 -- -- 56
2019-06-09 18:00:00 16.9 5 Norte 15 Norte 0 -- -- 56
2019-06-09 17:00:00 17.4 5 Norte 17 Nordeste 0 -- -- 54
2019-06-09 16:00:00 18.5 4 Norte 14 Norte 0 -- -- 50
2019-06-09 15:00:00 18.2 6 Norte 15 Norte 0 -- -- 50
2019-06-09 14:00:00 17.6 2 Nordeste 11 Norte 0 -- -- 51
2019-06-09 13:00:00 17.1 0 Calma 10 Nordeste 0 -- -- 52
2019-06-09 12:00:00 15.5 3 Sudeste 11 Nordeste 0 -- -- 55
2019-06-09 11:00:00 14 3 Norte 15 Norte 0 -- -- 67
2019-06-09 10:00:00 12.7 4 Nordeste 14 Nordeste 0 -- -- 77
2019-06-09 09:00:00 11.1 5 Nordeste 11 Nordeste 0 -- -- 87
2019-06-09 08:00:00 9.3 0 Calma 6 Nordeste 0 -- -- 91
2019-06-09 07:00:00 9.2 0 Calma 5 Nordeste 0 -- -- 91
2019-06-09 06:00:00 9.6 0 Calma 5 Nordeste 0 -- -- 90
2019-06-09 05:00:00 10 0 Calma 5 Norte 0 -- -- 89
2019-06-09 04:00:00 10.2 0 Calma 5 Nordeste 0 -- -- 89
2019-06-09 03:00:00 10.3 0 Calma 10 Nordeste 0 -- -- 87
2019-06-09 02:00:00 10.3 2 Nordeste 13 Norte 0 -- -- 86
2019-06-09 01:00:00 10.5 3 Nordeste 14 Nordeste 0 -- -- 85
2019-06-09 00:00:00 10.9 5 Nordeste 18 Nordeste 0 -- -- 80
2019-06-08 23:00:00 11.8 5 Nordeste 17 Nordeste 0 -- -- 77
2019-06-08 22:00:00 13.2 8 Nordeste 19 Norte 0 -- -- 68
2019-06-08 21:00:00 14.9 6 Nordeste 14 Nordeste 0 -- -- 56
2019-06-08 20:00:00 15.6 3 Nordeste 14 Norte 0 -- -- 50
2019-06-08 19:00:00 15.8 4 Nordeste 17 Norte 0 -- -- 49
2019-06-08 18:00:00 16 5 Norte 18 Nordeste 0 -- -- 49
2019-06-08 17:00:00 14.9 5 Nordeste 20 Norte 0 -- -- 56
2019-06-08 16:00:00 14.6 4 Nordeste 14 Nordeste 0 -- -- 58
2019-06-08 15:00:00 14.9 4 Nordeste 13 Nordeste 0 -- -- 54
2019-06-08 14:00:00 15.7 3 Norte 14 Nordeste 0 -- -- 52
2019-06-08 13:00:00 15.2 5 Norte 13 Nordeste 0 -- -- 52
2019-06-08 12:00:00 13.7 3 Norte 11 Nordeste 0 -- -- 70
2019-06-08 11:00:00 11.9 4 Nordeste 12 Norte 0 -- -- 82
2019-06-08 10:00:00 9.6 5 Nordeste 11 Nordeste 0 -- -- 91
2019-06-08 09:00:00 7.4 3 Nordeste 10 Nordeste 0 -- -- 95
2019-06-08 08:00:00 6.2 3 Nordeste 11 Nordeste 0 -- -- 95
2019-06-08 07:00:00 5.9 4 Nordeste 13 Nordeste 0 -- -- 95
2019-06-08 06:00:00 6.5 3 Nordeste 6 Nordeste 0 -- -- 94
2019-06-08 05:00:00 6.7 0 Calma 6 Nordeste 0 -- -- 94
2019-06-08 04:00:00 6.9 3 Nordeste 6 Nordeste 0 -- -- 93
2019-06-08 03:00:00 7.4 0 Calma 4 Nordeste 0 -- -- 93
2019-06-08 02:00:00 8.1 0 Calma 5 Norte 0 -- -- 91
2019-06-08 01:00:00 8.8 0 Calma 4 Nordeste 0 -- -- 88
2019-06-08 00:00:00 9.6 0 Calma 3 Nordeste 0 -- -- 83
2019-06-07 23:00:00 11.3 0 Calma 6 Oeste 0 -- -- 70
2019-06-07 22:00:00 12.8 0 Calma 12 Oeste 0 -- -- 61
2019-06-07 21:00:00 14 4 Oeste 15 Sudoeste 0 -- -- 57
2019-06-07 20:00:00 14.8 4 Oeste 19 Sudoeste 0 -- -- 53
2019-06-07 19:00:00 15.1 5 Oeste 22 Sudoeste 0 -- -- 53
2019-06-07 18:00:00 15.4 3 Oeste 18 Sudoeste 0 -- -- 53
2019-06-07 17:00:00 14.1 2 Norte 17 Norte 0.1 -- -- 63
2019-06-07 16:00:00 15.9 0 Calma 21 Sudoeste 0 -- -- 56
2019-06-07 15:00:00 15.2 0 Calma 10 Sudoeste 0 -- -- 66
2019-06-07 14:00:00 12.5 0 Calma 26 Nordeste 0.4 -- -- 71
2019-06-07 13:00:00 13.2 3 Oeste 30 Sudoeste 0.8 -- -- 71
2019-06-07 12:00:00 12.4 0 Calma 18 Oeste 0.5 -- -- 76
2019-06-07 11:00:00 11.9 7 Sudoeste 22 Oeste 0 -- -- 80
2019-06-07 10:00:00 10.5 4 Sudoeste 8 Sudoeste 0 -- -- 94
2019-06-07 09:00:00 9.1 0 Calma -- -- 0 -- -- 97
2019-06-07 08:00:00 7.9 0 Calma 0 Calma 0 -- -- 97
2019-06-07 07:00:00 7.8 0 Calma 4 Nordeste 0.1 -- -- 97
2019-06-07 06:00:00 8.2 0 Calma 5 Oeste 0.1 -- -- 97
2019-06-07 05:00:00 8.4 0 Calma 9 Sudoeste 1.9 -- -- 96
2019-06-07 04:00:00 8.5 0 Calma 6 Sur 0 -- -- 95
2019-06-07 03:00:00 8.6 3 Sudoeste 13 Sudoeste 0.8 -- -- 93
2019-06-07 02:00:00 8.8 3 Sudoeste 15 Oeste 1.1 -- -- 92
2019-06-07 01:00:00 9.4 3 Sudoeste 15 Oeste 1.6 -- -- 92
2019-06-07 00:00:00 10.1 4 Sudoeste 14 Sudoeste 0.1 -- -- 89
2019-06-06 23:00:00 10.3 4 Sudoeste 15 Oeste 0.2 -- -- 84
2019-06-06 22:00:00 10.8 4 Oeste 17 Sudoeste 0 -- -- 78
2019-06-06 21:00:00 11.4 2 Oeste 28 Sudoeste 0 -- -- 76
2019-06-06 20:00:00 11.8 9 Sudoeste 33 Sudoeste 0 -- -- 77
2019-06-06 19:00:00 12 9 Sudoeste 32 Oeste 0 -- -- 79
2019-06-06 18:00:00 11.9 10 Oeste 36 Sudoeste 0 -- -- 81
2019-06-06 17:00:00 13.6 12 Sudoeste 39 Oeste 0.1 -- -- 79
2019-06-06 16:00:00 13.2 15 Sudoeste 39 Sudoeste 5.5 -- -- 96
2019-06-06 15:00:00 12.4 12 Sur 51 Sur 5.9 -- -- 94
2019-06-06 14:00:00 11.7 12 Sur 39 Sur 8.5 -- -- 94
2019-06-06 13:00:00 11.8 9 Sur 36 Sudoeste 2.5 -- -- 92
2019-06-06 12:00:00 11.8 8 Sur 36 Oeste 0.5 -- -- 90
2019-06-06 11:00:00 11.1 9 Sur 28 Sudeste 1.5 -- -- 93
2019-06-06 10:00:00 10.9 4 Sur 19 Sur 1.5 -- -- 93
2019-06-06 09:00:00 10.7 5 Sur 19 Sur 0.5 -- -- 92
2019-06-06 08:00:00 10.3 3 Sur 21 Sudeste 0.2 -- -- 96
2019-06-06 07:00:00 10.1 5 Sur 17 Sur 0.5 -- -- 95
2019-06-06 06:00:00 10.3 2 Sur 10 Sur 0.3 -- -- 94
2019-06-06 05:00:00 10.3 0 Calma 7 Sur 0.4 -- -- 93
2019-06-06 04:00:00 10.3 0 Calma 3 Oeste 0.2 -- -- 93
2019-06-06 03:00:00 10.3 0 Calma 11 Oeste 1.3 -- -- 91
2019-06-06 02:00:00 10.5 0 Calma 8 Sudeste 0 -- -- 91
2019-06-06 01:00:00 10.6 0 Calma 9 Oeste 0.6 -- -- 89
2019-06-06 00:00:00 11 3 Sudoeste 9 Sudoeste 0.1 -- -- 81
2019-06-05 23:00:00 11.2 4 Oeste 13 Sudoeste 0 -- -- 78
2019-06-05 22:00:00 12.1 0 Calma 15 Sudoeste 0.4 -- -- 67
2019-06-05 21:00:00 13.3 6 Sudoeste 16 Sudoeste 0 -- -- 58
2019-06-05 20:00:00 13.9 5 Oeste 20 Sudoeste 0 -- -- 52
2019-06-05 19:00:00 14.3 7 Oeste 25 Sudoeste 0 -- -- 55
2019-06-05 18:00:00 15.3 3 Oeste 30 Sudoeste 0 -- -- 52
2019-06-05 17:00:00 15.2 9 Sudoeste 23 Sudoeste 0 -- -- 58
2019-06-05 16:00:00 14.3 2 Nordeste 15 Norte 0 -- -- 59
2019-06-05 15:00:00 14.2 5 Norte 26 Oeste 0 -- -- 53
2019-06-05 14:00:00 15.4 6 Oeste 25 Sudoeste 0 -- -- 47
2019-06-05 13:00:00 15.1 3 Oeste 20 Noroeste 0 -- -- 49
2019-06-05 12:00:00 14 2 Noroeste 19 Oeste 0 -- -- 56
2019-06-05 11:00:00 13.1 3 Oeste 16 Sudoeste 0 -- -- 70
2019-06-05 10:00:00 11.6 5 Sudoeste 12 Oeste 0 -- -- 82
2019-06-05 09:00:00 10.6 0 Calma 6 Oeste 0 -- -- 93
2019-06-05 08:00:00 9.4 0 Calma 4 Sudoeste 0 -- -- 95
2019-06-05 07:00:00 9.2 0 Calma -- -- 0 -- -- 95
2019-06-05 06:00:00 9.4 0 Calma 3 Oeste 0 -- -- 94
2019-06-05 05:00:00 9.3 0 Calma 2 Sudoeste 0 -- -- 93
2019-06-05 04:00:00 9.7 0 Calma -- -- 0 -- -- 93
2019-06-05 03:00:00 9.9 0 Calma -- -- 0 -- -- 91
2019-06-05 02:00:00 10.5 0 Calma 0 Calma 0 -- -- 89
2019-06-05 01:00:00 11.2 0 Calma 5 Oeste 0 -- -- 85
2019-06-05 00:00:00 12 0 Calma 4 Oeste 0 -- -- 81
2019-06-04 23:00:00 12.3 0 Calma 6 Norte 0 -- -- 75
2019-06-04 22:00:00 13.4 0 Calma 8 Sudoeste 0 -- -- 68
2019-06-04 21:00:00 14.8 0 Calma 14 Sudoeste 0 -- -- 63
2019-06-04 20:00:00 15.3 3 Oeste 21 Sudoeste 0 -- -- 63
2019-06-04 19:00:00 15.7 3 Oeste 15 Oeste 0 -- -- 62
2019-06-04 18:00:00 15.5 0 Calma 15 Oeste 0 -- -- 61
2019-06-04 17:00:00 15.5 5 Sudoeste 13 Sudoeste 0.3 -- -- 72
2019-06-04 16:00:00 15.7 2 Noroeste 19 Sudoeste 0.1 -- -- 71
2019-06-04 15:00:00 15.4 5 Oeste 29 Oeste 1.4 -- -- 72
2019-06-04 14:00:00 16.1 3 Oeste 17 Sudoeste 0.8 -- -- 63
2019-06-04 13:00:00 16.3 0 Calma 15 Sudoeste 0 -- -- 56
2019-06-04 12:00:00 16 0 Calma 15 Oeste 0 -- -- 59
2019-06-04 11:00:00 14.7 0 Calma 12 Oeste 0 -- -- 74
2019-06-04 10:00:00 14.4 0 Calma 10 Oeste 0 -- -- 82
2019-06-04 09:00:00 13.6 0 Calma 23 Sudoeste 0.2 -- -- 96
2019-06-04 08:00:00 13.7 8 Sudoeste 27 Oeste 2.1 -- -- 96
2019-06-04 07:00:00 13.6 5 Sudoeste 24 Oeste 1.3 -- -- 93
2019-06-04 06:00:00 14.1 7 Sudoeste 27 Oeste 0.1 -- -- 88
2019-06-04 05:00:00 14.6 5 Sudoeste 20 Sudeste 0 -- -- 82
2019-06-04 04:00:00 14.3 4 Sur 16 Sur 0 -- -- 82
2019-06-04 03:00:00 14.2 4 Sudoeste 12 Sur 0 -- -- 80
2019-06-04 02:00:00 14 0 Calma 10 Oeste 0 -- -- 85
2019-06-04 01:00:00 14.3 4 Sudoeste 12 Sudoeste 0 -- -- 84
2019-06-04 00:00:00 14.3 3 Sudoeste 18 Oeste 0 -- -- 83
2019-06-03 23:00:00 14.5 5 Sudoeste 18 Sudoeste 0 -- -- 79
2019-06-03 22:00:00 15.3 7 Sudoeste 15 Sudoeste 0 -- -- 75
2019-06-03 21:00:00 16.9 3 Oeste 15 Sudoeste 0 -- -- 67
2019-06-03 20:00:00 17.6 4 Oeste 18 Sudoeste 0 -- -- 62
2019-06-03 19:00:00 17.4 3 Sudoeste 15 Oeste 0 -- -- 73
2019-06-03 18:00:00 17.8 3 Oeste 25 Sudoeste 0 -- -- 74
2019-06-03 17:00:00 18.7 7 Sudoeste 24 Sudoeste 0 -- -- 69
2019-06-03 16:00:00 19.2 9 Sudoeste 24 Sudoeste 0 -- -- 70
2019-06-03 15:00:00 19.1 8 Sudoeste 20 Sudoeste 0 -- -- 76
2019-06-03 14:00:00 17.8 5 Sudoeste 16 Oeste 0.1 -- -- 91
2019-06-03 13:00:00 16.9 6 Sudoeste 14 Oeste 0.7 -- -- 96
2019-06-03 12:00:00 16.2 0 Calma 11 Nordeste 1.6 -- -- 96
2019-06-03 11:00:00 16.4 2 Sur 8 Oeste 0.5 -- -- 96
2019-06-03 10:00:00 16.1 0 Calma 8 Oeste 0.8 -- -- 96
2019-06-03 09:00:00 15.8 2 Sudoeste 8 Sudoeste 0.7 -- -- 96
2019-06-03 08:00:00 15.9 0 Calma 10 Oeste 0.3 -- -- 96
2019-06-03 07:00:00 15.8 3 Sudoeste 8 Sudoeste 0.3 -- -- 96
2019-06-03 06:00:00 15.9 0 Calma 8 Sur 0.2 -- -- 96
2019-06-03 05:00:00 15.8 0 Calma 6 Oeste 0.4 -- -- 96
2019-06-03 04:00:00 15.9 2 Sudoeste 9 Sudoeste 0 -- -- 95
2019-06-03 03:00:00 15.9 2 Sudoeste 7 Oeste 0 -- -- 94
2019-06-03 02:00:00 16 0 Calma 6 Oeste 0 -- -- 93
2019-06-03 01:00:00 16.5 2 Oeste 10 Sudoeste 0 -- -- 89
2019-06-03 00:00:00 17.1 2 Sudoeste 9 Sudoeste 0 -- -- 85
2019-06-02 23:00:00 17.1 2 Sudoeste 10 Sudoeste 0 -- -- 80
2019-06-02 22:00:00 17.8 3 Sudoeste 8 Sudoeste 0 -- -- 70
2019-06-02 21:00:00 18.9 0 Calma 12 Sudoeste 0 -- -- 67
2019-06-02 20:00:00 19.8 5 Sudoeste 14 Sudoeste 0 -- -- 64
2019-06-02 19:00:00 21.4 8 Sudoeste 17 Sudoeste 0 -- -- 55
2019-06-02 18:00:00 22.9 3 Sudoeste 15 Oeste 0 -- -- 52
2019-06-02 17:00:00 23.5 4 Sudoeste 14 Sudoeste 0 -- -- 48
2019-06-02 16:00:00 23.8 6 Oeste 19 Oeste 0 -- -- 46
2019-06-02 15:00:00 22.8 3 Sudoeste 14 Sudoeste 0 -- -- 53
2019-06-02 14:00:00 21.3 4 Sudoeste 14 Oeste 0 -- -- 62
2019-06-02 13:00:00 19.4 3 Oeste 14 Sudoeste 0 -- -- 68
2019-06-02 12:00:00 16.6 7 Oeste 17 Oeste 0 -- -- 81
2019-06-02 11:00:00 14.7 3 Oeste 13 Oeste 0 -- -- 91
2019-06-02 10:00:00 13.9 3 Oeste 12 Oeste 0 -- -- 92
2019-06-02 09:00:00 13.7 5 Oeste 9 Sudoeste 0 -- -- 82
2019-06-02 08:00:00 13.7 0 Calma 5 Sudoeste 0 -- -- 79
2019-06-02 07:00:00 13.1 0 Calma -- -- 0 -- -- 79
2019-06-02 06:00:00 13.8 0 Calma 0 Calma 0 -- -- 75
2019-06-02 05:00:00 15.2 0 Calma 0 Calma 0 -- -- 69
2019-06-02 04:00:00 16.2 0 Calma -- -- 0 -- -- 63
2019-06-02 03:00:00 16.9 0 Calma 0 Calma 0 -- -- 58
2019-06-02 02:00:00 17.8 0 Calma 4 Oeste 0 -- -- 55
2019-06-02 01:00:00 18.5 0 Calma -- -- 0 -- -- 53
2019-06-02 00:00:00 19.1 0 Calma -- -- 0 -- -- 54
2019-06-01 23:00:00 20.9 0 Calma -- -- 0 -- -- 46
2019-06-01 22:00:00 23.2 0 Calma 6 Oeste 0 -- -- 38
2019-06-01 21:00:00 25.6 0 Calma 12 Oeste 0 -- -- 32
2019-06-01 20:00:00 27.3 0 Calma 10 Sudoeste 0 -- -- 32
2019-06-01 19:00:00 28.1 0 Calma 15 Sudoeste 0 -- -- 29
2019-06-01 18:00:00 28.9 5 Oeste 21 Sudoeste 0 -- -- 29
2019-06-01 17:00:00 29.7 5 Sudoeste 22 Sudoeste 0 -- -- 29
2019-06-01 16:00:00 30.5 6 Sudoeste 20 Sudoeste 0 -- -- 32
2019-06-01 15:00:00 30.1 2 Oeste 15 Sudoeste 0 -- -- 36
2019-06-01 14:00:00 29.2 2 Oeste 13 Sudoeste 0 -- -- 39
2019-06-01 13:00:00 27 0 Calma 9 Oeste 0 -- -- 44
2019-06-01 12:00:00 24.5 4 Sudoeste 9 Sudoeste 0 -- -- 50
2019-06-01 11:00:00 22 0 Calma 5 Sudeste 0 -- -- 55
2019-06-01 10:00:00 19.6 0 Calma 4 Sudeste 0 -- -- 68
2019-06-01 09:00:00 17 2 Nordeste 8 Nordeste 0 -- -- 79
2019-06-01 08:00:00 14.6 4 Nordeste 14 Nordeste 0 -- -- 86
2019-06-01 07:00:00 14.3 5 Nordeste 10 Nordeste 0 -- -- 85
2019-06-01 06:00:00 15 5 Nordeste 9 Nordeste 0 -- -- 81
2019-06-01 05:00:00 15.8 5 Nordeste 10 Nordeste 0 -- -- 77
2019-06-01 04:00:00 16.3 3 Nordeste 14 Nordeste 0 -- -- 72
2019-06-01 03:00:00 17.3 4 Nordeste 9 Norte 0 -- -- 67
2019-06-01 02:00:00 18 3 Nordeste 8 Nordeste 0 -- -- 64
2019-06-01 01:00:00 18.9 0 Calma 9 Nordeste 0 -- -- 60
2019-06-01 00:00:00 20.2 2 Nordeste 8 Nordeste 0 -- -- 51
2019-05-31 23:00:00 22.1 0 Calma 8 Nordeste 0 -- -- 44
2019-05-31 22:00:00 24.5 0 Calma 6 Sudoeste 0 -- -- 38
2019-05-31 21:00:00 27 2 Oeste 9 Oeste 0 -- -- 34
2019-05-31 20:00:00 27.9 0 Calma 14 Oeste 0 -- -- 32
2019-05-31 19:00:00 29.1 6 Sudoeste 21 Sudoeste 0 -- -- 30
2019-05-31 18:00:00 30.4 5 Sudoeste 23 Sudoeste 0 -- -- 31
2019-05-31 17:00:00 31.5 9 Sudoeste 23 Sudoeste 0 -- -- 30
2019-05-31 16:00:00 32.8 10 Oeste 24 Oeste 0 -- -- 28
2019-05-31 15:00:00 33.5 7 Oeste 18 Sudoeste 0 -- -- 27
2019-05-31 14:00:00 32.6 4 Oeste 13 Sudoeste 0 -- -- 30
2019-05-31 13:00:00 30.6 2 Sudoeste 12 Sudeste 0 -- -- 38
2019-05-31 12:00:00 27.8 3 Sur 12 Sur 0 -- -- 40
2019-05-31 11:00:00 25.2 3 Sudeste 10 Nordeste 0 -- -- 48
2019-05-31 10:00:00 21.8 4 Nordeste 10 Nordeste 0 -- -- 63
2019-05-31 09:00:00 18.9 6 Nordeste 19 Nordeste 0 -- -- 66
2019-05-31 08:00:00 16.9 8 Nordeste 18 Nordeste 0 -- -- 69
2019-05-31 07:00:00 16.1 9 Nordeste 17 Nordeste 0 -- -- 70
2019-05-31 06:00:00 17.3 5 Nordeste 14 Nordeste 0 -- -- 64
2019-05-31 05:00:00 17.2 6 Nordeste 14 Nordeste 0 -- -- 63
2019-05-31 04:00:00 18.1 5 Nordeste 13 Nordeste 0 -- -- 61
2019-05-31 03:00:00 18.4 5 Nordeste 12 Nordeste 0 -- -- 60
2019-05-31 02:00:00 19.5 4 Nordeste 13 Nordeste 0 -- -- 56
2019-05-31 01:00:00 20.7 5 Nordeste 10 Nordeste 0 -- -- 50
2019-05-31 00:00:00 21.9 2 Nordeste 17 Nordeste 0 -- -- 44
2019-05-30 23:00:00 23.1 4 Nordeste 19 Nordeste 0 -- -- 41
2019-05-30 22:00:00 24.8 6 Nordeste 19 Nordeste 0 -- -- 38
2019-05-30 21:00:00 26.9 8 Nordeste 25 Nordeste 0 -- -- 36
2019-05-30 20:00:00 28.2 9 Nordeste 28 Nordeste 0 -- -- 34
2019-05-30 19:00:00 29.9 7 Norte 22 Nordeste 0 -- -- 35
2019-05-30 18:00:00 31.1 4 Norte 17 Nordeste 0 -- -- 33
2019-05-30 17:00:00 32.2 4 Nordeste 14 Norte 0 -- -- 31
2019-05-30 16:00:00 32 0 Calma 12 Oeste 0 -- -- 34
2019-05-30 15:00:00 31.3 3 Oeste 10 Sur 0.2 -- -- 34
2019-05-30 14:00:00 30 2 Este 12 Sudeste 0 -- -- 38
2019-05-30 13:00:00 27.5 2 Sur 9 Sudeste 0 -- -- 43
2019-05-30 12:00:00 24.6 3 Sudeste 9 Sur 0 -- -- 50
2019-05-30 11:00:00 21.5 0 Calma 9 Norte 0 -- -- 63
2019-05-30 10:00:00 18.8 4 Nordeste 12 Norte 0 -- -- 69
2019-05-30 09:00:00 16.6 3 Nordeste 12 Norte 0 -- -- 74
2019-05-30 08:00:00 14.9 4 Nordeste 15 Nordeste 0 -- -- 79
2019-05-30 07:00:00 14.8 5 Nordeste 15 Nordeste 0 -- -- 79
2019-05-30 06:00:00 14.9 5 Nordeste 19 Nordeste 0 -- -- 79
2019-05-30 05:00:00 15.4 5 Nordeste 15 Nordeste 0 -- -- 79
2019-05-30 04:00:00 15.7 4 Nordeste 16 Nordeste 0 -- -- 78
2019-05-30 03:00:00 16.2 5 Nordeste 17 Norte 0 -- -- 78
2019-05-30 02:00:00 16.7 8 Nordeste 19 Norte 0 -- -- 78
2019-05-30 01:00:00 17.5 4 Nordeste 18 Nordeste 0 -- -- 75
2019-05-30 00:00:00 18.1 8 Nordeste 20 Nordeste 0 -- -- 71
2019-05-29 23:00:00 18.8 6 Nordeste 16 Norte 0 -- -- 66
2019-05-29 22:00:00 20.4 4 Norte 14 Norte 0 -- -- 59
2019-05-29 21:00:00 22.4 6 Norte 21 Nordeste 0 -- -- 53
2019-05-29 20:00:00 24.2 6 Nordeste 21 Nordeste 0 -- -- 49
2019-05-29 19:00:00 25.4 8 Nordeste 22 Nordeste 0 -- -- 45
2019-05-29 18:00:00 25.9 5 Nordeste 21 Nordeste 0 -- -- 43
2019-05-29 17:00:00 26.1 8 Nordeste 24 Nordeste 0 -- -- 42
2019-05-29 16:00:00 25.8 6 Nordeste 22 Nordeste 0 -- -- 43
2019-05-29 15:00:00 25.7 7 Nordeste 27 Nordeste 0 -- -- 42
2019-05-29 14:00:00 24.7 6 Nordeste 22 Norte 0 -- -- 43
2019-05-29 13:00:00 22.6 6 Nordeste 16 Nordeste 0 -- -- 47
2019-05-29 12:00:00 19.8 5 Nordeste 19 Nordeste 0 -- -- 52
2019-05-29 11:00:00 17.1 6 Nordeste 18 Nordeste 0 -- -- 62
2019-05-29 10:00:00 14.5 6 Nordeste 19 Nordeste 0 -- -- 70
2019-05-29 09:00:00 12.3 4 Nordeste 14 Nordeste 0 -- -- 78
2019-05-29 08:00:00 10.2 3 Nordeste 12 Nordeste 0 -- -- 85
2019-05-29 07:00:00 9.9 3 Nordeste 13 Nordeste 0 -- -- 86
2019-05-29 06:00:00 10.1 4 Nordeste 17 Nordeste 0 -- -- 86
2019-05-29 05:00:00 10.3 6 Nordeste 19 Nordeste 0 -- -- 86
2019-05-29 04:00:00 10.9 3 Nordeste 14 Nordeste 0 -- -- 85
2019-05-29 03:00:00 11 4 Nordeste 14 Nordeste 0 -- -- 86
2019-05-29 02:00:00 11.5 3 Nordeste 17 Norte 0 -- -- 86
2019-05-29 01:00:00 12 8 Nordeste 22 Nordeste 0 -- -- 85
2019-05-29 00:00:00 12.6 8 Nordeste 26 Nordeste 0 -- -- 82
2019-05-28 23:00:00 13.4 6 Nordeste 22 Nordeste 0 -- -- 78
2019-05-28 22:00:00 14.5 6 Nordeste 24 Nordeste 0 -- -- 69
2019-05-28 21:00:00 16 8 Nordeste 30 Norte 0 -- -- 61
2019-05-28 20:00:00 -- 9 Norte 31 Norte 0 -- -- --
2019-05-28 19:00:00 -- 10 Norte 30 Nordeste 0 -- -- --
2019-05-28 18:00:00 -- 8 Nordeste 30 Nordeste 0 -- -- --
2019-05-28 17:00:00 -- 9 Nordeste 32 Nordeste 0 -- -- --
2019-05-28 16:00:00 -- 8 Nordeste 31 Nordeste 0 -- -- --
2019-05-28 15:00:00 -- 9 Nordeste 32 Nordeste 0 -- -- --
2019-05-28 14:00:00 -- 6 Nordeste 23 Nordeste 0 -- -- --
2019-05-28 13:00:00 -- 6 Nordeste 28 Norte 0 -- -- --
2019-05-28 12:00:00 -- 8 Nordeste 29 Nordeste 0 -- -- --
2019-05-28 11:00:00 -- 6 Nordeste 29 Nordeste 0 -- -- --
2019-05-28 10:00:00 -- 8 Nordeste 23 Nordeste 0 -- -- --
2019-05-28 09:00:00 11.7 3 Nordeste 20 Norte 0 -- -- 88
2019-05-28 08:00:00 10.4 3 Nordeste 15 Nordeste 0 -- -- 92
2019-05-28 07:00:00 10.1 4 Nordeste 16 Nordeste 0 -- -- 92
2019-05-28 06:00:00 10.2 6 Nordeste 18 Nordeste 0 -- -- 91
2019-05-28 05:00:00 10.3 4 Nordeste 18 Nordeste 0 -- -- 90
2019-05-28 04:00:00 10.5 5 Nordeste 24 Nordeste 0 -- -- 87
2019-05-28 03:00:00 10.7 5 Nordeste 24 Norte 0 -- -- 88
2019-05-28 02:00:00 10.6 6 Nordeste 21 Nordeste 0 -- -- 86
2019-05-28 01:00:00 11.3 4 Nordeste 20 Nordeste 0 -- -- 83
2019-05-28 00:00:00 11.6 6 Nordeste 24 Nordeste 0 -- -- 83
2019-05-27 23:00:00 12.1 4 Nordeste 22 Nordeste 0 -- -- 79
2019-05-27 22:00:00 12.9 3 Nordeste 26 Nordeste 0 -- -- 74
2019-05-27 21:00:00 14 8 Nordeste 28 Norte 0 -- -- 69
2019-05-27 20:00:00 15.1 9 Norte 32 Norte 0 -- -- 67
2019-05-27 19:00:00 16.6 9 Norte 32 Nordeste 0 -- -- 62
2019-05-27 18:00:00 17.8 11 Norte 27 Norte 0 -- -- 60
2019-05-27 17:00:00 18.3 10 Nordeste 33 Nordeste 0 -- -- 60
2019-05-27 16:00:00 18.7 12 Nordeste 30 Nordeste 0 -- -- 57
2019-05-27 15:00:00 19.9 8 Nordeste 25 Norte 0 -- -- 54
2019-05-27 14:00:00 19.5 8 Norte 26 Norte 0 -- -- 54
2019-05-27 13:00:00 18 7 Nordeste 25 Norte 0 -- -- 63
2019-05-27 12:00:00 17.1 6 Nordeste 23 Norte 0 -- -- 72
2019-05-27 11:00:00 16.2 5 Norte 20 Norte 0 -- -- 83
2019-05-27 10:00:00 14.8 4 Nordeste 11 Nordeste 0 -- -- 96
2019-05-27 09:00:00 13.8 2 Nordeste 5 Norte 0.1 -- -- 96
2019-05-27 08:00:00 13.5 0 Calma 5 Este 0 -- -- 96
2019-05-27 07:00:00 13.4 0 Calma 5 Nordeste 0 -- -- 96
2019-05-27 06:00:00 13.6 0 Calma 9 Nordeste 0 -- -- 92
2019-05-27 05:00:00 13.4 0 Calma 12 Nordeste 0 -- -- 93
2019-05-27 04:00:00 13.2 3 Nordeste 15 Nordeste 0 -- -- 93
2019-05-27 03:00:00 13.4 3 Nordeste 13 Nordeste 0 -- -- 92
2019-05-27 02:00:00 13.3 3 Nordeste 17 Nordeste 0 -- -- 90
2019-05-27 01:00:00 13.2 6 Nordeste 18 Nordeste 0 -- -- 89
2019-05-27 00:00:00 13.2 4 Nordeste 19 Norte 0 -- -- 88
2019-05-26 23:00:00 13.3 4 Nordeste 26 Nordeste 0 -- -- 85
2019-05-26 22:00:00 14 7 Norte 24 Nordeste 0 -- -- 78
2019-05-26 21:00:00 16.1 9 Nordeste 23 Nordeste 0 -- -- 69
2019-05-26 20:00:00 18.4 8 Nordeste 24 Nordeste 0 -- -- 61
2019-05-26 19:00:00 19.7 10 Nordeste 24 Nordeste 0 -- -- 56
2019-05-26 18:00:00 21.2 12 Nordeste 26 Nordeste 0 -- -- 52
2019-05-26 17:00:00 22.7 6 Nordeste 30 Nordeste 0 -- -- 50
2019-05-26 16:00:00 23.1 6 Nordeste 23 Nordeste 0 -- -- 51
2019-05-26 15:00:00 22.1 5 Nordeste 22 Nordeste 0 -- -- 53
2019-05-26 14:00:00 20.2 6 Nordeste 26 Norte 0 -- -- 57
2019-05-26 13:00:00 18.1 5 Nordeste 22 Norte 0 -- -- 63
2019-05-26 12:00:00 16 7 Nordeste 22 Norte 0 -- -- 71
2019-05-26 11:00:00 14.7 6 Nordeste 18 Nordeste 0 -- -- 76
2019-05-26 10:00:00 13.3 8 Nordeste 21 Nordeste 0 -- -- 82
2019-05-26 09:00:00 12.3 3 Nordeste 18 Nordeste 0 -- -- 89
2019-05-26 08:00:00 11.1 3 Nordeste 11 Nordeste 0 -- -- 93
2019-05-26 07:00:00 11 3 Nordeste 12 Nordeste 0 -- -- 93
2019-05-26 06:00:00 10.7 0 Calma 13 Norte 0 -- -- 92
2019-05-26 05:00:00 10.9 4 Nordeste 18 Nordeste 0 -- -- 91
2019-05-26 04:00:00 10.8 4 Nordeste 16 Norte 0 -- -- 90
2019-05-26 03:00:00 11.2 4 Nordeste 16 Nordeste 0 -- -- 89
2019-05-26 02:00:00 11.8 4 Nordeste 14 Norte 0 -- -- 86
2019-05-26 01:00:00 12.2 4 Nordeste 14 Nordeste 0 -- -- 85
2019-05-26 00:00:00 12.7 2 Nordeste 14 Nordeste 0 -- -- 80
2019-05-25 23:00:00 13.4 6 Norte 18 Nordeste 0 -- -- 73
2019-05-25 22:00:00 14.9 4 Nordeste 26 Norte 0 -- -- 67
2019-05-25 21:00:00 16.4 8 Norte 31 Norte 0 -- -- 64
2019-05-25 20:00:00 17.8 9 Nordeste 28 Nordeste 0 -- -- 60
2019-05-25 19:00:00 19 10 Norte 31 Nordeste 0 -- -- 57
2019-05-25 18:00:00 20.5 9 Norte 35 Norte 0 -- -- 53
2019-05-25 17:00:00 21.8 7 Norte 28 Norte 0 -- -- 52
2019-05-25 16:00:00 21.6 9 Nordeste 28 Nordeste 0 -- -- 51
2019-05-25 15:00:00 21.2 9 Nordeste 28 Nordeste 0 -- -- 51
2019-05-25 14:00:00 20 8 Nordeste 27 Nordeste 0 -- -- 53
2019-05-25 13:00:00 18 6 Nordeste 28 Norte 0 -- -- 57
2019-05-25 12:00:00 16.6 7 Nordeste 34 Nordeste 0 -- -- 61
2019-05-25 11:00:00 15.5 6 Nordeste 25 Nordeste 0 -- -- 65
2019-05-25 10:00:00 14.3 6 Nordeste 21 Norte 0 -- -- 70
2019-05-25 09:00:00 12.7 3 Nordeste 20 Norte 0 -- -- 85
2019-05-25 08:00:00 11.5 3 Nordeste 17 Nordeste 0 -- -- 93
2019-05-25 07:00:00 11.1 3 Nordeste 16 Norte 0 -- -- 93
2019-05-25 06:00:00 11 3 Nordeste 17 Este 0 -- -- 93
2019-05-25 05:00:00 11.2 5 Nordeste 15 Norte 0 -- -- 91
2019-05-25 04:00:00 11.4 3 Nordeste 16 Nordeste 0 -- -- 90
2019-05-25 03:00:00 11.7 2 Norte 16 Nordeste 0 -- -- 86
2019-05-25 02:00:00 12.1 3 Nordeste 26 Nordeste 0 -- -- 85
2019-05-25 01:00:00 12.3 6 Nordeste 27 Norte 0 -- -- 85
2019-05-25 00:00:00 13 11 Nordeste 29 Nordeste 0 -- -- 82
2019-05-24 23:00:00 13.4 10 Nordeste 27 Nordeste 0 -- -- 79
2019-05-24 22:00:00 14.4 9 Nordeste 27 Nordeste 0 -- -- 74
2019-05-24 21:00:00 16 8 Norte 29 Nordeste 0 -- -- 67
2019-05-24 20:00:00 17 10 Nordeste 30 Norte 0 -- -- 62
2019-05-24 19:00:00 17.4 10 Nordeste 30 Nordeste 0 -- -- 60
2019-05-24 18:00:00 18.3 10 Nordeste 32 Norte 0 -- -- 57
2019-05-24 17:00:00 18.7 9 Nordeste 32 Nordeste 0 -- -- 53
2019-05-24 16:00:00 19.4 8 Nordeste 30 Norte 0 -- -- 52
2019-05-24 15:00:00 18.6 8 Nordeste 31 Nordeste 0 -- -- 52
2019-05-24 14:00:00 18.5 6 Nordeste 31 Norte 0 -- -- 52
2019-05-24 13:00:00 16.1 9 Nordeste 27 Nordeste 0 -- -- 59
2019-05-24 12:00:00 16 7 Nordeste 24 Nordeste 0 -- -- 59
2019-05-24 11:00:00 13.9 8 Nordeste 26 Nordeste 0 -- -- 72
2019-05-24 10:00:00 13.4 4 Nordeste 14 Nordeste 0 -- -- 85
2019-05-24 09:00:00 11.1 0 Calma 9 Norte 0 -- -- 96
2019-05-24 08:00:00 9.8 4 Nordeste 9 Norte 0 -- -- 97
2019-05-24 07:00:00 9.7 3 Nordeste 9 Norte 0 -- -- 97
2019-05-24 06:00:00 9.9 0 Calma 8 Este 0 -- -- 96
2019-05-24 05:00:00 10.1 2 Nordeste 9 Nordeste 0 -- -- 95
2019-05-24 04:00:00 10.5 3 Nordeste 9 Norte 0 -- -- 94
2019-05-24 03:00:00 10.9 3 Nordeste 10 Norte 0 -- -- 93
2019-05-24 02:00:00 11.1 2 Nordeste 11 Nordeste 0 -- -- 91
2019-05-24 01:00:00 11.5 4 Nordeste 13 Nordeste 0 -- -- 89
2019-05-24 00:00:00 12.1 4 Nordeste 12 Nordeste 0 -- -- 84
2019-05-23 23:00:00 12.9 2 Nordeste 12 Norte 0 -- -- 78
2019-05-23 22:00:00 14.3 3 Norte 19 Nordeste 0 -- -- 68
2019-05-23 21:00:00 15.5 6 Norte 21 Nordeste 0 -- -- 63
2019-05-23 20:00:00 16.7 5 Norte 22 Norte 0 -- -- 56
2019-05-23 19:00:00 18.3 5 Norte 18 Norte 0 -- -- 49
2019-05-23 18:00:00 19.3 4 Norte 18 Noroeste 0 -- -- 49
2019-05-23 17:00:00 20.3 5 Nordeste 17 Nordeste 0 -- -- 45
2019-05-23 16:00:00 21.5 0 Calma 13 Sudoeste 0 -- -- 44
2019-05-23 15:00:00 20.5 0 Calma 12 Sudoeste 0 -- -- 48
2019-05-23 14:00:00 20 2 Noroeste 15 Oeste 0 -- -- 49
2019-05-23 13:00:00 19.5 3 Oeste 13 Oeste 0 -- -- 55
2019-05-23 12:00:00 17.2 0 Calma 11 Sudoeste 0 -- -- 64
2019-05-23 11:00:00 15.1 5 Sudoeste 11 Sudoeste 0 -- -- 85
2019-05-23 10:00:00 13.6 0 Calma 8 Sudoeste 0 -- -- 93
2019-05-23 09:00:00 13.3 0 Calma 5 Sur 0 -- -- 93
2019-05-23 08:00:00 12.8 0 Calma -- -- 0 -- -- 92
2019-05-23 07:00:00 12.6 0 Calma -- -- 0 -- -- 92
2019-05-23 06:00:00 12.3 0 Calma 4 Sudeste 0 -- -- 93
2019-05-23 05:00:00 12.1 0 Calma 4 Oeste 0 -- -- 93
2019-05-23 04:00:00 12.1 0 Calma 3 Sudoeste 0 -- -- 91
2019-05-23 03:00:00 12.5 0 Calma 4 Oeste 0 -- -- 87
2019-05-23 02:00:00 12.9 0 Calma 3 Noroeste 0 -- -- 84
2019-05-23 01:00:00 13.6 0 Calma 3 Noroeste 0 -- -- 78
2019-05-23 00:00:00 14.7 0 Calma 6 Oeste 0 -- -- 71
2019-05-22 23:00:00 16.2 0 Calma 8 Sudoeste 0 -- -- 64
2019-05-22 22:00:00 18.1 0 Calma 9 Sudoeste 0 -- -- 57
2019-05-22 21:00:00 20.1 2 Oeste 15 Oeste 0 -- -- 52
2019-05-22 20:00:00 21.2 3 Oeste 17 Sudoeste 0 -- -- 49
2019-05-22 19:00:00 22 8 Sudoeste 20 Oeste 0 -- -- 49
2019-05-22 18:00:00 22.9 7 Sudoeste 23 Oeste 0 -- -- 46
2019-05-22 17:00:00 23.3 7 Sudoeste 22 Oeste 0 -- -- 45
2019-05-22 16:00:00 24.6 7 Oeste 17 Sudoeste 0 -- -- 45
2019-05-22 15:00:00 24.5 4 Oeste 17 Oeste 0 -- -- 44
2019-05-22 14:00:00 23.5 4 Oeste 15 Sudoeste 0 -- -- 46
2019-05-22 13:00:00 21 6 Sudoeste 14 Sudoeste 0 -- -- 48
2019-05-22 12:00:00 19.2 6 Sudoeste 14 Sudoeste 0 -- -- 55
2019-05-22 11:00:00 17.1 0 Calma 6 Sudeste 0 -- -- 63
2019-05-22 10:00:00 14.2 0 Calma 8 Nordeste 0 -- -- 75
2019-05-22 09:00:00 11.9 3 Nordeste 11 Nordeste 0 -- -- 81
2019-05-22 08:00:00 10.3 5 Nordeste 13 Nordeste 0 -- -- 86
2019-05-22 07:00:00 9.9 6 Nordeste 13 Nordeste 0 -- -- 86
2019-05-22 06:00:00 10.2 6 Nordeste 13 Norte 0 -- -- 86
2019-05-22 05:00:00 10.6 5 Nordeste 12 Nordeste 0 -- -- 84
2019-05-22 04:00:00 11.5 4 Nordeste 11 Norte 0 -- -- 82
2019-05-22 03:00:00 12.2 3 Nordeste 11 Nordeste 0 -- -- 80
2019-05-22 02:00:00 13.1 4 Nordeste 10 Nordeste 0 -- -- 76
2019-05-22 01:00:00 13.9 2 Nordeste 5 Norte 0 -- -- 69
2019-05-22 00:00:00 15.3 0 Calma 10 Nordeste 0 -- -- 62
2019-05-21 23:00:00 16.2 0 Calma 11 Norte 0 -- -- 58
2019-05-21 22:00:00 17.6 2 Norte 16 Nordeste 0 -- -- 54
2019-05-21 21:00:00 19.3 6 Norte 21 Nordeste 0 -- -- 51
2019-05-21 20:00:00 20.6 9 Nordeste 26 Nordeste 0 -- -- 48
2019-05-21 19:00:00 21.6 6 Norte 25 Norte 0 -- -- 48
2019-05-21 18:00:00 22.9 3 Nordeste 12 Nordeste 0 -- -- 43
2019-05-21 17:00:00 23.8 5 Nordeste 15 Norte 0 -- -- 42
2019-05-21 16:00:00 24.2 4 Nordeste 17 Nordeste 0 -- -- 42
2019-05-21 15:00:00 22.5 4 Nordeste 18 Norte 0 -- -- 45
2019-05-21 14:00:00 22.3 4 Norte 15 Norte 0 -- -- 46
2019-05-21 13:00:00 20.4 3 Nordeste 12 Nordeste 0 -- -- 49
2019-05-21 12:00:00 17.7 3 Nordeste 13 Nordeste 0 -- -- 54
2019-05-21 11:00:00 15.8 2 Norte 8 Norte 0 -- -- 65
2019-05-21 10:00:00 13.5 0 Calma 9 Nordeste 0 -- -- 75
2019-05-21 09:00:00 11.3 2 Nordeste 8 Norte 0 -- -- 83
2019-05-21 08:00:00 9.1 5 Nordeste 12 Nordeste 0 -- -- 89
2019-05-21 07:00:00 8.8 4 Nordeste 9 Nordeste 0 -- -- 86
2019-05-21 06:00:00 9.2 4 Nordeste 8 Nordeste 0 -- -- 83
2019-05-21 05:00:00 10.3 2 Nordeste 8 Nordeste 0 -- -- 81
2019-05-21 04:00:00 11.6 0 Calma 3 Nordeste 0 -- -- 76
2019-05-21 03:00:00 11.9 0 Calma 4 Nordeste 0 -- -- 74
2019-05-21 02:00:00 12 0 Calma 8 Norte 0 -- -- 72
2019-05-21 01:00:00 12.2 3 Nordeste 7 Nordeste 0 -- -- 69
2019-05-21 00:00:00 12.8 0 Calma 6 Norte 0 -- -- 64